sensor_id;sensor_type;location;lat;lon;timestamp;temperature;humidity
75769;DHT22;64379;48.888;8.330;2023-01-05T12:49:10;12.10;67.10
75769;DHT22;64379;48.888;8.330;2023-01-05T12:51:42;12.20;66.70
75769;DHT22;64379;48.888;8.330;2023-01-05T12:54:30;12.20;65.70
75769;DHT22;64379;48.888;8.330;2023-01-05T12:59:58;12.20;64.30
75769;DHT22;64379;48.888;8.330;2023-01-05T13:02:35;12.20;64.80
75769;DHT22;64379;48.888;8.330;2023-01-05T13:05:15;12.20;65.60
75769;DHT22;64379;48.888;8.330;2023-01-05T13:13:15;12.20;66.40
75769;DHT22;64379;48.888;8.330;2023-01-05T13:16:44;12.20;66.30
75769;DHT22;64379;48.888;8.330;2023-01-05T13:18:56;12.10;66.30
75769;DHT22;64379;48.888;8.330;2023-01-05T13:21:25;12.10;66.50
75769;DHT22;64379;48.888;8.330;2023-01-05T13:23:56;12.10;66.90
75769;DHT22;64379;48.888;8.330;2023-01-05T13:26:23;12.00;67.10
75769;DHT22;64379;48.888;8.330;2023-01-05T13:28:51;12.10;66.60
75769;DHT22;64379;48.888;8.330;2023-01-05T13:31:33;12.10;66.40
75769;DHT22;64379;48.888;8.330;2023-01-05T13:45:11;12.10;66.90
75769;DHT22;64379;48.888;8.330;2023-01-05T13:53:10;12.10;66.90
75769;DHT22;64379;48.888;8.330;2023-01-05T13:55:47;12.10;66.70
75769;DHT22;64379;48.888;8.330;2023-01-05T13:58:33;12.10;66.40
75769;DHT22;64379;48.888;8.330;2023-01-05T14:01:02;12.10;66.00
75769;DHT22;64379;48.888;8.330;2023-01-05T14:03:34;12.10;66.20
75769;DHT22;64379;48.888;8.330;2023-01-05T14:06:05;12.10;66.20
75769;DHT22;64379;48.888;8.330;2023-01-05T14:08:46;12.10;66.90
75769;DHT22;64379;48.888;8.330;2023-01-05T14:14:02;12.10;66.50
75769;DHT22;64379;48.888;8.330;2023-01-05T14:19:25;12.10;66.50
75769;DHT22;64379;48.888;8.330;2023-01-05T14:24:40;12.00;66.70
75769;DHT22;64379;48.888;8.330;2023-01-05T14:27:23;12.00;67.10
75769;DHT22;64379;48.888;8.330;2023-01-05T14:32:34;11.90;66.50
75769;DHT22;64379;48.888;8.330;2023-01-05T14:40:40;11.90;66.80
75769;DHT22;64379;48.888;8.330;2023-01-05T14:46:00;11.90;67.00
75769;DHT22;64379;48.888;8.330;2023-01-05T14:48:33;11.90;66.70
75769;DHT22;64379;48.888;8.330;2023-01-05T14:53:47;11.90;66.90
75769;DHT22;64379;48.888;8.330;2023-01-05T14:56:22;11.90;66.80
75769;DHT22;64379;48.888;8.330;2023-01-05T14:58:57;11.90;66.40
75769;DHT22;64379;48.888;8.330;2023-01-05T15:04:21;11.90;66.30
75769;DHT22;64379;48.888;8.330;2023-01-05T15:06:56;11.90;66.20
75769;DHT22;64379;48.888;8.330;2023-01-05T15:15:06;11.90;66.60
75769;DHT22;64379;48.888;8.330;2023-01-05T15:26:22;11.70;66.50
75769;DHT22;64379;48.888;8.330;2023-01-05T15:29:43;11.70;66.40
75769;DHT22;64379;48.888;8.330;2023-01-05T15:32:18;11.70;66.40
75769;DHT22;64379;48.888;8.330;2023-01-05T15:37:38;11.70;67.10
75769;DHT22;64379;48.888;8.330;2023-01-05T15:40:12;11.70;66.50
75769;DHT22;64379;48.888;8.330;2023-01-05T15:42:58;11.70;66.50
75769;DHT22;64379;48.888;8.330;2023-01-05T15:45:48;11.70;66.70
75769;DHT22;64379;48.888;8.330;2023-01-05T15:48:25;11.70;67.00
75769;DHT22;64379;48.888;8.330;2023-01-05T15:50:53;11.60;67.20
75769;DHT22;64379;48.888;8.330;2023-01-05T15:53:29;11.50;67.30
75769;DHT22;64379;48.888;8.330;2023-01-05T15:55:57;11.50;67.70
75769;DHT22;64379;48.888;8.330;2023-01-05T15:58:24;11.50;67.90
75769;DHT22;64379;48.888;8.330;2023-01-05T16:03:33;11.40;68.60
75769;DHT22;64379;48.888;8.330;2023-01-05T16:06:20;11.40;68.60
75769;DHT22;64379;48.888;8.330;2023-01-05T16:08:50;11.30;68.70
75769;DHT22;64379;48.888;8.330;2023-01-05T16:11:25;11.30;68.90
75769;DHT22;64379;48.888;8.330;2023-01-05T16:13:58;11.30;69.00
75769;DHT22;64379;48.888;8.330;2023-01-05T16:16:44;11.30;69.00
75769;DHT22;64379;48.888;8.330;2023-01-05T16:19:30;11.30;68.70
75769;DHT22;64379;48.888;8.330;2023-01-05T16:22:20;11.30;68.90
75769;DHT22;64379;48.888;8.330;2023-01-05T16:27:16;11.20;69.00
75769;DHT22;64379;48.888;8.330;2023-01-05T16:29:45;11.20;68.90
75769;DHT22;64379;48.888;8.330;2023-01-05T16:32:36;11.10;69.00
75769;DHT22;64379;48.888;8.330;2023-01-05T16:35:23;11.20;69.20
75769;DHT22;64379;48.888;8.330;2023-01-05T16:43:35;11.10;69.70
75769;DHT22;64379;48.888;8.330;2023-01-05T16:51:21;11.10;69.80
75769;DHT22;64379;48.888;8.330;2023-01-05T16:53:55;11.10;69.70
75769;DHT22;64379;48.888;8.330;2023-01-05T17:02:01;11.10;69.90
75769;DHT22;64379;48.888;8.330;2023-01-05T17:04:27;11.10;69.90
75769;DHT22;64379;48.888;8.330;2023-01-05T17:06:53;11.10;69.90
75769;DHT22;64379;48.888;8.330;2023-01-05T17:09:22;11.10;69.80
75769;DHT22;64379;48.888;8.330;2023-01-05T17:11:49;11.10;69.80
75769;DHT22;64379;48.888;8.330;2023-01-05T17:14:15;11.10;69.90
75769;DHT22;64379;48.888;8.330;2023-01-05T17:16:41;11.10;69.70
75769;DHT22;64379;48.888;8.330;2023-01-05T17:19:15;11.10;69.70
75769;DHT22;64379;48.888;8.330;2023-01-05T17:21:55;11.10;69.70
75769;DHT22;64379;48.888;8.330;2023-01-05T17:24:21;11.20;69.70
75769;DHT22;64379;48.888;8.330;2023-01-05T17:26:47;11.30;69.50
75769;DHT22;64379;48.888;8.330;2023-01-05T17:29:19;11.30;69.70
75769;DHT22;64379;48.888;8.330;2023-01-05T17:31:45;11.30;70.00
75769;DHT22;64379;48.888;8.330;2023-01-05T17:34:10;11.30;70.10
75769;DHT22;64379;48.888;8.330;2023-01-05T17:36:36;11.30;70.30
75769;DHT22;64379;48.888;8.330;2023-01-05T17:39:02;11.30;70.70
75769;DHT22;64379;48.888;8.330;2023-01-05T17:41:28;11.30;71.20
75769;DHT22;64379;48.888;8.330;2023-01-05T17:43:53;11.10;71.50
75769;DHT22;64379;48.888;8.330;2023-01-05T17:46:21;11.10;71.90
75769;DHT22;64379;48.888;8.330;2023-01-05T17:48:47;11.10;72.10
75769;DHT22;64379;48.888;8.330;2023-01-05T17:51:13;11.10;72.70
75769;DHT22;64379;48.888;8.330;2023-01-05T17:53:39;11.00;72.70
75769;DHT22;64379;48.888;8.330;2023-01-05T17:56:05;11.00;72.60
75769;DHT22;64379;48.888;8.330;2023-01-05T17:58:34;11.00;72.30
75769;DHT22;64379;48.888;8.330;2023-01-05T18:01:00;11.00;72.30
75769;DHT22;64379;48.888;8.330;2023-01-05T18:03:26;11.10;72.20
75769;DHT22;64379;48.888;8.330;2023-01-05T18:05:52;11.10;72.10
75769;DHT22;64379;48.888;8.330;2023-01-05T18:08:18;11.10;72.10
75769;DHT22;64379;48.888;8.330;2023-01-05T18:10:44;11.10;71.90
75769;DHT22;64379;48.888;8.330;2023-01-05T18:13:11;11.10;71.80
75769;DHT22;64379;48.888;8.330;2023-01-05T18:15:44;11.10;71.70
75769;DHT22;64379;48.888;8.330;2023-01-05T18:18:11;11.10;71.60
75769;DHT22;64379;48.888;8.330;2023-01-05T18:20:39;11.10;71.80
75769;DHT22;64379;48.888;8.330;2023-01-05T18:23:05;11.10;71.80
75769;DHT22;64379;48.888;8.330;2023-01-05T18:25:30;11.10;72.00
75769;DHT22;64379;48.888;8.330;2023-01-05T18:27:56;11.10;71.90
75769;DHT22;64379;48.888;8.330;2023-01-05T18:30:22;11.10;71.80
75769;DHT22;64379;48.888;8.330;2023-01-05T18:32:47;11.10;71.70
75769;DHT22;64379;48.888;8.330;2023-01-05T18:35:13;11.10;71.80
75769;DHT22;64379;48.888;8.330;2023-01-05T18:37:39;11.10;71.80
75769;DHT22;64379;48.888;8.330;2023-01-05T18:40:06;11.10;71.80
75769;DHT22;64379;48.888;8.330;2023-01-05T18:42:33;11.10;72.40
75769;DHT22;64379;48.888;8.330;2023-01-05T18:44:59;11.10;72.50
75769;DHT22;64379;48.888;8.330;2023-01-05T18:47:25;11.00;72.80
75769;DHT22;64379;48.888;8.330;2023-01-05T18:49:50;10.90;73.10
75769;DHT22;64379;48.888;8.330;2023-01-05T18:52:17;10.90;73.60
75769;DHT22;64379;48.888;8.330;2023-01-05T18:54:43;10.80;74.40
75769;DHT22;64379;48.888;8.330;2023-01-05T18:57:09;10.80;74.60
75769;DHT22;64379;48.888;8.330;2023-01-05T18:59:35;10.70;75.20
75769;DHT22;64379;48.888;8.330;2023-01-05T19:02:00;10.70;74.80
75769;DHT22;64379;48.888;8.330;2023-01-05T19:04:26;10.70;75.00
75769;DHT22;64379;48.888;8.330;2023-01-05T19:06:52;10.70;75.00
75769;DHT22;64379;48.888;8.330;2023-01-05T19:09:18;10.70;75.10
75769;DHT22;64379;48.888;8.330;2023-01-05T19:11:45;10.70;75.00
75769;DHT22;64379;48.888;8.330;2023-01-05T19:14:12;10.60;75.30
75769;DHT22;64379;48.888;8.330;2023-01-05T19:16:38;10.60;75.30
75769;DHT22;64379;48.888;8.330;2023-01-05T19:19:06;10.60;75.00
75769;DHT22;64379;48.888;8.330;2023-01-05T19:21:36;10.70;75.00
75769;DHT22;64379;48.888;8.330;2023-01-05T19:24:03;10.70;74.90
75769;DHT22;64379;48.888;8.330;2023-01-05T19:26:31;10.70;74.70
75769;DHT22;64379;48.888;8.330;2023-01-05T19:28:58;10.80;74.90
75769;DHT22;64379;48.888;8.330;2023-01-05T19:31:25;10.80;74.90
75769;DHT22;64379;48.888;8.330;2023-01-05T19:33:52;10.90;74.90
75769;DHT22;64379;48.888;8.330;2023-01-05T19:36:20;11.00;74.60
75769;DHT22;64379;48.888;8.330;2023-01-05T19:38:46;11.10;74.40
75769;DHT22;64379;48.888;8.330;2023-01-05T19:41:15;11.10;74.50
75769;DHT22;64379;48.888;8.330;2023-01-05T19:43:40;11.10;74.60
75769;DHT22;64379;48.888;8.330;2023-01-05T19:46:10;11.10;74.80
75769;DHT22;64379;48.888;8.330;2023-01-05T19:48:37;11.00;75.20
75769;DHT22;64379;48.888;8.330;2023-01-05T19:51:05;11.00;75.40
75769;DHT22;64379;48.888;8.330;2023-01-05T19:53:32;11.00;75.50
75769;DHT22;64379;48.888;8.330;2023-01-05T19:56:06;11.10;75.50
75769;DHT22;64379;48.888;8.330;2023-01-05T19:58:33;11.10;75.50
75769;DHT22;64379;48.888;8.330;2023-01-05T20:01:12;11.10;75.60
75769;DHT22;64379;48.888;8.330;2023-01-05T20:03:42;11.10;75.70
75769;DHT22;64379;48.888;8.330;2023-01-05T20:06:10;11.10;75.80
75769;DHT22;64379;48.888;8.330;2023-01-05T20:08:37;11.10;75.90
75769;DHT22;64379;48.888;8.330;2023-01-05T20:11:11;11.00;76.20
75769;DHT22;64379;48.888;8.330;2023-01-05T20:13:37;11.00;76.50
75769;DHT22;64379;48.888;8.330;2023-01-05T20:16:09;10.90;76.60
75769;DHT22;64379;48.888;8.330;2023-01-05T20:18:36;11.00;76.70
75769;DHT22;64379;48.888;8.330;2023-01-05T20:21:04;11.00;76.70
75769;DHT22;64379;48.888;8.330;2023-01-05T20:23:35;11.00;76.70
75769;DHT22;64379;48.888;8.330;2023-01-05T20:26:15;11.00;76.90
75769;DHT22;64379;48.888;8.330;2023-01-05T20:28:42;11.00;76.80
75769;DHT22;64379;48.888;8.330;2023-01-05T20:31:24;11.00;77.20
75769;DHT22;64379;48.888;8.330;2023-01-05T20:33:52;11.00;77.70
75769;DHT22;64379;48.888;8.330;2023-01-05T20:36:19;10.90;77.80
75769;DHT22;64379;48.888;8.330;2023-01-05T20:38:45;10.80;78.00
75769;DHT22;64379;48.888;8.330;2023-01-05T20:41:25;10.80;78.20
75769;DHT22;64379;48.888;8.330;2023-01-05T20:43:52;10.80;78.40
75769;DHT22;64379;48.888;8.330;2023-01-05T20:46:21;10.80;78.00
75769;DHT22;64379;48.888;8.330;2023-01-05T20:48:51;10.90;78.20
75769;DHT22;64379;48.888;8.330;2023-01-05T20:51:18;10.90;78.10
75769;DHT22;64379;48.888;8.330;2023-01-05T20:53:46;11.00;78.00
75769;DHT22;64379;48.888;8.330;2023-01-05T20:56:14;11.00;77.80
75769;DHT22;64379;48.888;8.330;2023-01-05T20:58:42;11.00;77.90
75769;DHT22;64379;48.888;8.330;2023-01-05T21:01:08;10.90;78.10
75769;DHT22;64379;48.888;8.330;2023-01-05T21:03:35;10.90;78.40
75769;DHT22;64379;48.888;8.330;2023-01-05T21:06:02;10.90;78.50
75769;DHT22;64379;48.888;8.330;2023-01-05T21:08:28;10.90;78.60
75769;DHT22;64379;48.888;8.330;2023-01-05T21:10:55;10.90;78.90
75769;DHT22;64379;48.888;8.330;2023-01-05T21:13:22;10.90;79.20
75769;DHT22;64379;48.888;8.330;2023-01-05T21:18:23;11.00;79.20
75769;DHT22;64379;48.888;8.330;2023-01-05T21:20:49;11.10;79.30
75769;DHT22;64379;48.888;8.330;2023-01-05T21:23:15;11.10;79.10
75769;DHT22;64379;48.888;8.330;2023-01-05T21:25:41;11.10;79.10
75769;DHT22;64379;48.888;8.330;2023-01-05T21:28:07;11.10;79.00
75769;DHT22;64379;48.888;8.330;2023-01-05T21:30:33;11.10;79.00
75769;DHT22;64379;48.888;8.330;2023-01-05T21:32:58;11.10;79.00
75769;DHT22;64379;48.888;8.330;2023-01-05T21:35:24;11.10;79.00
75769;DHT22;64379;48.888;8.330;2023-01-05T21:37:50;11.20;78.90
75769;DHT22;64379;48.888;8.330;2023-01-05T21:40:15;11.20;78.90
75769;DHT22;64379;48.888;8.330;2023-01-05T21:42:41;11.20;78.70
75769;DHT22;64379;48.888;8.330;2023-01-05T21:45:10;11.20;78.70
75769;DHT22;64379;48.888;8.330;2023-01-05T21:47:37;11.30;78.60
75769;DHT22;64379;48.888;8.330;2023-01-05T21:50:06;11.30;78.30
75769;DHT22;64379;48.888;8.330;2023-01-05T21:52:32;11.30;78.10
75769;DHT22;64379;48.888;8.330;2023-01-05T21:55:17;11.30;78.10
75769;DHT22;64379;48.888;8.330;2023-01-05T21:58:01;11.30;78.10
75769;DHT22;64379;48.888;8.330;2023-01-05T22:00:27;11.40;77.90
75769;DHT22;64379;48.888;8.330;2023-01-05T22:02:54;11.40;77.80
75769;DHT22;64379;48.888;8.330;2023-01-05T22:05:19;11.40;77.60
75769;DHT22;64379;48.888;8.330;2023-01-05T22:07:45;11.50;77.50
75769;DHT22;64379;48.888;8.330;2023-01-05T22:10:11;11.50;77.60
75769;DHT22;64379;48.888;8.330;2023-01-05T22:12:37;11.50;77.50
75769;DHT22;64379;48.888;8.330;2023-01-05T22:15:04;11.40;77.50
75769;DHT22;64379;48.888;8.330;2023-01-05T22:17:30;11.40;77.60
75769;DHT22;64379;48.888;8.330;2023-01-05T22:19:58;11.40;77.70
75769;DHT22;64379;48.888;8.330;2023-01-05T22:22:24;11.40;77.80
75769;DHT22;64379;48.888;8.330;2023-01-05T22:24:50;11.40;77.10
75769;DHT22;64379;48.888;8.330;2023-01-05T22:27:25;11.50;76.80
75769;DHT22;64379;48.888;8.330;2023-01-05T22:29:51;11.50;76.70
75769;DHT22;64379;48.888;8.330;2023-01-05T22:32:16;11.50;76.50
75769;DHT22;64379;48.888;8.330;2023-01-05T22:34:42;11.50;76.50
75769;DHT22;64379;48.888;8.330;2023-01-05T22:37:09;11.60;76.40
75769;DHT22;64379;48.888;8.330;2023-01-05T22:39:42;11.70;76.10
75769;DHT22;64379;48.888;8.330;2023-01-05T22:42:07;11.70;75.90
75769;DHT22;64379;48.888;8.330;2023-01-05T22:44:34;11.70;75.80
75769;DHT22;64379;48.888;8.330;2023-01-05T22:47:00;11.70;75.80
75769;DHT22;64379;48.888;8.330;2023-01-05T22:49:25;11.70;75.80
75769;DHT22;64379;48.888;8.330;2023-01-05T22:51:52;11.70;76.00
75769;DHT22;64379;48.888;8.330;2023-01-05T22:54:18;11.70;76.00
75769;DHT22;64379;48.888;8.330;2023-01-05T22:56:43;11.70;76.00
75769;DHT22;64379;48.888;8.330;2023-01-05T22:59:09;11.70;75.90
75769;DHT22;64379;48.888;8.330;2023-01-05T23:01:37;11.70;75.90
75769;DHT22;64379;48.888;8.330;2023-01-05T23:04:04;11.70;76.00
75769;DHT22;64379;48.888;8.330;2023-01-05T23:06:31;11.70;76.00
75769;DHT22;64379;48.888;8.330;2023-01-05T23:08:57;11.70;75.90
75769;DHT22;64379;48.888;8.330;2023-01-05T23:11:25;11.70;75.90
75769;DHT22;64379;48.888;8.330;2023-01-05T23:13:53;11.70;75.80
75769;DHT22;64379;48.888;8.330;2023-01-05T23:16:19;11.70;75.80
75769;DHT22;64379;48.888;8.330;2023-01-05T23:18:46;11.70;76.00
75769;DHT22;64379;48.888;8.330;2023-01-05T23:21:13;11.70;75.80
75769;DHT22;64379;48.888;8.330;2023-01-05T23:23:40;11.70;75.70
75769;DHT22;64379;48.888;8.330;2023-01-05T23:26:07;11.70;75.90
75769;DHT22;64379;48.888;8.330;2023-01-05T23:28:34;11.70;75.80
75769;DHT22;64379;48.888;8.330;2023-01-05T23:31:00;11.70;75.60
75769;DHT22;64379;48.888;8.330;2023-01-05T23:33:30;11.70;75.60
75769;DHT22;64379;48.888;8.330;2023-01-05T23:35:56;11.70;75.50
75769;DHT22;64379;48.888;8.330;2023-01-05T23:38:23;11.70;75.60
75769;DHT22;64379;48.888;8.330;2023-01-05T23:40:50;11.70;75.60
75769;DHT22;64379;48.888;8.330;2023-01-05T23:43:18;11.60;76.00
75769;DHT22;64379;48.888;8.330;2023-01-05T23:45:46;11.50;76.30
75769;DHT22;64379;48.888;8.330;2023-01-05T23:48:13;11.50;76.40
75769;DHT22;64379;48.888;8.330;2023-01-05T23:50:44;11.50;76.60
75769;DHT22;64379;48.888;8.330;2023-01-05T23:53:11;11.50;76.70
75769;DHT22;64379;48.888;8.330;2023-01-05T23:55:37;11.50;76.90
75769;DHT22;64379;48.888;8.330;2023-01-05T23:58:03;11.40;77.10
